Thunder radar more information blitzortung!


Radar de pluja more information rain snow radar


Visita la nostra xarxa de llocs de meteo:

Template documentation
and downloads

And another site



No particular awareness of the weather is required.    There are no Weather-warnings

Pagina Historial Weather Underground text

Diari Resum Agost 14, 2017 Unitats:  Mètric    Imperial   Tant
« Previous Dia
SegĂźent Dia »
Diari Setmana Mensual Anual Personalitzada
  Maxima: Minima: Media:
Temperatura: 33.0 °C 17.1 °C 27 °C
Punt de rosada: 18.5 °C 9.8 °C 13.7 °C
Humitat: 84 % 29 % 47 %
Wind Speed: 22.2 km/h 0.0 km/h 7 km/h
RĂ fegues de vent: 22.2 km/h - -
Vent:- - SSW
Pression baro: 1017.8 hPa 1014.8 hPa -
Precipitacions: 0.0 mm    
Historical Graphs
 
 
Dades de taula per Agost 14, 2017
Temps Temperatura Punt de rosada Pression baro Vent Wind Speed RĂ fegues de vent Humitat Rainfall Rate (Hourly)
00:01 21.7 °C 15.6 °C 1017.8 hPa WSW 3.7 km/h 3.7 km/h 68 % 0.0 mm
00:05 18.7 °C 15.4 °C 1015.8 hPa Calm   1.6 km/h 81 % 0.0 mm
00:06 21.7 °C 15.6 °C 1017.8 hPa Calm     68 % 0.0 mm
00:15 18.5 °C 15.2 °C 1015.8 hPa WNW 1.6 km/h 3.2 km/h 81 % 0.0 mm
00:25 18.4 °C 15.1 °C 1015.8 hPa Calm     81 % 0.0 mm
00:35 18.4 °C 15.3 °C 1015.8 hPa Calm   1.6 km/h 82 % 0.0 mm
00:45 18.3 °C 15.0 °C 1015.8 hPa SW 1.6 km/h 3.2 km/h 81 % 0.0 mm
00:55 18.2 °C 15.1 °C 1016.8 hPa Calm     82 % 0.0 mm
01:05 18.0 °C 14.9 °C 1015.8 hPa Calm   1.6 km/h 82 % 0.0 mm
01:15 17.8 °C 14.7 °C 1015.8 hPa WSW 1.6 km/h 1.6 km/h 82 % 0.0 mm
01:25 17.7 °C 14.6 °C 1014.8 hPa SW 1.6 km/h 3.2 km/h 82 % 0.0 mm
01:35 17.6 °C 14.5 °C 1016.8 hPa SW 3.2 km/h 3.2 km/h 82 % 0.0 mm
01:45 17.3 °C 14.4 °C 1016.8 hPa SW 1.6 km/h 3.2 km/h 83 % 0.0 mm
01:55 17.3 °C 14.4 °C 1015.8 hPa Calm   3.2 km/h 83 % 0.0 mm
02:05 17.2 °C 14.3 °C 1016.8 hPa SW 1.6 km/h 1.6 km/h 83 % 0.0 mm
02:15 17.2 °C 14.3 °C 1016.8 hPa SW 1.6 km/h 3.2 km/h 83 % 0.0 mm
02:25 17.1 °C 14.2 °C 1016.8 hPa SW 1.6 km/h 1.6 km/h 83 % 0.0 mm
02:35 17.3 °C 14.6 °C 1015.8 hPa Calm   1.6 km/h 84 % 0.0 mm
02:45 17.8 °C 15.1 °C 1015.8 hPa Calm     84 % 0.0 mm
02:55 17.7 °C 14.8 °C 1015.8 hPa WSW 1.6 km/h 3.2 km/h 83 % 0.0 mm
03:05 18.0 °C 14.7 °C 1016.8 hPa SW 1.6 km/h 3.2 km/h 81 % 0.0 mm
03:15 18.2 °C 14.7 °C 1016.8 hPa SW 1.6 km/h 4.8 km/h 80 % 0.0 mm
03:25 18.6 °C 15.1 °C 1015.8 hPa Calm   3.2 km/h 80 % 0.0 mm
03:35 19.0 °C 15.1 °C 1016.8 hPa WSW 1.6 km/h 3.2 km/h 78 % 0.0 mm
03:45 19.4 °C 15.3 °C 1016.8 hPa SW 1.6 km/h 3.2 km/h 77 % 0.0 mm
03:55 20.2 °C 15.8 °C 1016.8 hPa SW 1.6 km/h 3.2 km/h 76 % 0.0 mm
04:05 20.4 °C 15.8 °C 1016.8 hPa SW 1.6 km/h 3.2 km/h 75 % 0.0 mm
04:15 21.5 °C 16.7 °C 1016.8 hPa SW 3.2 km/h 3.2 km/h 74 % 0.0 mm
04:25 22.3 °C 16.6 °C 1016.8 hPa South 3.2 km/h 3.2 km/h 70 % 0.0 mm
04:35 22.7 °C 16.9 °C 1017.8 hPa South 1.6 km/h 3.2 km/h 70 % 0.0 mm
04:45 23.1 °C 16.9 °C 1017.8 hPa SSW 1.6 km/h 6.4 km/h 68 % 0.0 mm
04:55 23.4 °C 17.4 °C 1016.8 hPa SW 4.8 km/h 4.8 km/h 69 % 0.0 mm
05:05 23.7 °C 17.7 °C 1017.8 hPa SW 3.2 km/h 9.7 km/h 69 % 0.0 mm
05:15 23.7 °C 17.7 °C 1017.8 hPa SW 4.8 km/h 8.0 km/h 69 % 0.0 mm
05:25 24.3 °C 18.0 °C 1016.8 hPa SW 4.8 km/h 6.4 km/h 68 % 0.0 mm
05:35 24.9 °C 18.1 °C 1016.8 hPa SW 4.8 km/h 6.4 km/h 66 % 0.0 mm
10:37 25.2 °C 17.9 °C 1016.8 hPa South 5.6 km/h 5.6 km/h 64 % 0.0 mm
10:42 25.8 °C 18.2 °C 1016.8 hPa WSW 7.4 km/h 7.4 km/h 63 % 0.0 mm
10:47 25.9 °C 18.1 °C 1016.8 hPa SSW 9.3 km/h 9.3 km/h 62 % 0.0 mm
10:52 26.3 °C 18.2 °C 1016.8 hPa SSE 5.6 km/h 5.6 km/h 61 % 0.0 mm
10:57 26.6 °C 18.4 °C 1016.8 hPa SW 5.6 km/h 5.6 km/h 61 % 0.0 mm
11:02 26.6 °C 18.4 °C 1016.8 hPa SW 7.4 km/h 7.4 km/h 61 % 0.0 mm
11:07 26.5 °C 17.8 °C 1016.8 hPa South 7.9 km/h 7.9 km/h 59 % 0.0 mm
11:12 26.9 °C 18.5 °C 1016.8 hPa SSW 5.8 km/h 5.8 km/h 60 % 0.0 mm
11:17 27.3 °C 18.1 °C 1016.8 hPa West 3.7 km/h 3.7 km/h 57 % 0.0 mm
11:22 27.7 °C 18.4 °C 1016.8 hPa West 9.7 km/h 9.7 km/h 57 % 0.0 mm
11:27 27.7 °C 18.4 °C 1016.8 hPa SW 9.3 km/h 9.3 km/h 57 % 0.0 mm
11:32 28.2 °C 18.3 °C 1016.8 hPa WSW 7.4 km/h 7.4 km/h 55 % 0.0 mm
11:37 28.1 °C 18.2 °C 1016.8 hPa SW 13.0 km/h 13.0 km/h 55 % 0.0 mm
11:42 28.2 °C 18.0 °C 1016.8 hPa South 7.4 km/h 7.4 km/h 54 % 0.0 mm
11:47 28.6 °C 18.1 °C 1016.8 hPa WSW 6.1 km/h 6.1 km/h 53 % 0.0 mm
11:52 28.9 °C 18.1 °C 1016.8 hPa SW 7.4 km/h 7.4 km/h 52 % 0.0 mm
11:57 28.8 °C 17.9 °C 1016.8 hPa SW 7.4 km/h 7.4 km/h 52 % 0.0 mm
12:02 29.1 °C 17.6 °C 1015.8 hPa SW 9.3 km/h 9.3 km/h 50 % 0.0 mm
12:07 29.4 °C 17.6 °C 1015.8 hPa WSW 13.0 km/h 13.0 km/h 49 % 0.0 mm
12:12 29.2 °C 16.7 °C 1015.8 hPa SW 14.8 km/h 14.8 km/h 47 % 0.0 mm
12:17 29.3 °C 16.8 °C 1016.8 hPa WSW 11.1 km/h 11.1 km/h 47 % 0.0 mm
12:22 29.3 °C 16.1 °C 1016.8 hPa SW 13.0 km/h 13.0 km/h 45 % 0.0 mm
12:27 29.6 °C 16.4 °C 1016.8 hPa SSW 11.9 km/h 11.9 km/h 45 % 0.0 mm
12:32 30.0 °C 16.1 °C 1016.8 hPa WSW 9.3 km/h 9.3 km/h 43 % 0.0 mm
12:37 30.4 °C 16.8 °C 1016.8 hPa SSW 9.3 km/h 9.3 km/h 44 % 0.0 mm
12:42 30.6 °C 16.9 °C 1016.8 hPa SSW 9.3 km/h 9.3 km/h 44 % 0.0 mm
12:47 30.4 °C 16.8 °C 1016.8 hPa SW 7.4 km/h 7.4 km/h 44 % 0.0 mm
12:52 30.6 °C 16.6 °C 1016.8 hPa West 13.0 km/h 13.0 km/h 43 % 0.0 mm
12:57 30.8 °C 16.8 °C 1016.8 hPa WNW 11.1 km/h 11.1 km/h 43 % 0.0 mm
13:02 30.6 °C 16.2 °C 1015.8 hPa SW 14.0 km/h 14.0 km/h 42 % 0.0 mm
13:07 30.7 °C 16.3 °C 1015.8 hPa SW 11.1 km/h 11.1 km/h 42 % 0.0 mm
13:12 30.8 °C 16.8 °C 1015.8 hPa SSW 9.3 km/h 9.3 km/h 43 % 0.0 mm
13:18 31.2 °C 16.8 °C 1015.8 hPa SW 9.3 km/h 9.3 km/h 42 % 0.0 mm
13:22 31.3 °C 15.7 °C 1015.8 hPa SSE 9.3 km/h 9.3 km/h 39 % 0.0 mm
13:27 31.5 °C 15.9 °C 1015.8 hPa SE 9.3 km/h 9.3 km/h 39 % 0.0 mm
13:32 32.1 °C 16.0 °C 1015.8 hPa East 11.1 km/h 11.1 km/h 38 % 0.0 mm
13:38 31.5 °C 15.4 °C 1015.8 hPa SSE 9.3 km/h 10.0 km/h 38 % 0.0 mm
13:39 31.8 °C 15.7 °C 1015.8 hPa SSE 7.4 km/h 7.4 km/h 38 % 0.0 mm
13:44 31.7 °C 15.2 °C 1015.8 hPa South 13.0 km/h 13.0 km/h 37 % 0.0 mm
13:49 31.6 °C 15.1 °C 1015.8 hPa SSW 5.6 km/h 6.9 km/h 37 % 0.0 mm
13:54 31.8 °C 14.9 °C 1015.8 hPa SW 11.9 km/h 11.9 km/h 36 % 0.0 mm
13:59 31.6 °C 14.3 °C 1015.8 hPa SSW 14.8 km/h 14.8 km/h 35 % 0.0 mm
14:04 31.7 °C 14.3 °C 1015.8 hPa SW 9.3 km/h 9.3 km/h 35 % 0.0 mm
14:09 32.0 °C 14.6 °C 1015.8 hPa SE 7.4 km/h 7.4 km/h 35 % 0.0 mm
14:14 32.3 °C 14.9 °C 1015.8 hPa SSW 16.7 km/h 16.7 km/h 35 % 0.0 mm
14:19 32.2 °C 14.3 °C 1015.8 hPa SW 11.9 km/h 11.9 km/h 34 % 0.0 mm
14:24 31.7 °C 13.9 °C 1015.8 hPa SW 16.7 km/h 16.7 km/h 34 % 0.0 mm
14:29 31.8 °C 14.0 °C 1015.8 hPa SW 5.8 km/h 5.8 km/h 34 % 0.0 mm
14:34 31.3 °C 12.6 °C 1015.8 hPa SSE 14.8 km/h 14.8 km/h 32 % 0.0 mm
14:39 32.2 °C 13.9 °C 1015.8 hPa SW 6.1 km/h 6.1 km/h 33 % 0.0 mm
14:44 32.4 °C 14.1 °C 1015.8 hPa South 6.4 km/h 6.4 km/h 33 % 0.0 mm
14:49 32.7 °C 13.8 °C 1015.8 hPa SSE 5.6 km/h 5.6 km/h 32 % 0.0 mm
14:54 32.2 °C 13.4 °C 1015.8 hPa South 9.3 km/h 9.3 km/h 32 % 0.0 mm
14:59 32.2 °C 13.4 °C 1014.8 hPa SSW 13.0 km/h 13.0 km/h 32 % 0.0 mm
15:04 32.4 °C 13.6 °C 1014.8 hPa SW 9.3 km/h 9.3 km/h 32 % 0.0 mm
15:09 32.4 °C 13.6 °C 1014.8 hPa WSW 7.4 km/h 7.4 km/h 32 % 0.0 mm
15:14 32.3 °C 13.5 °C 1015.8 hPa SW 9.3 km/h 9.3 km/h 32 % 0.0 mm
15:19 32.2 °C 12.9 °C 1015.8 hPa South 14.8 km/h 14.8 km/h 31 % 0.0 mm
15:24 32.6 °C 13.8 °C 1015.8 hPa West 7.4 km/h 7.4 km/h 32 % 0.0 mm
15:29 32.4 °C 13.1 °C 1015.8 hPa WSW 7.4 km/h 7.4 km/h 31 % 0.0 mm
15:34 32.8 °C 13.9 °C 1015.8 hPa WNW 7.4 km/h 7.4 km/h 32 % 0.0 mm
15:39 33.0 °C 13.6 °C 1015.8 hPa South 9.3 km/h 9.3 km/h 31 % 0.0 mm
15:44 32.9 °C 13.6 °C 1015.8 hPa SSW 9.3 km/h 9.3 km/h 31 % 0.0 mm
15:49 32.8 °C 13.4 °C 1015.8 hPa SSW 9.3 km/h 9.3 km/h 31 % 0.0 mm
15:54 32.6 °C 13.3 °C 1015.8 hPa WSW 13.0 km/h 13.0 km/h 31 % 0.0 mm
15:59 32.7 °C 13.3 °C 1015.8 hPa SSW 13.0 km/h 13.0 km/h 31 % 0.0 mm
16:05 32.3 °C 12.5 °C 1015.8 hPa SW 8.7 km/h 8.7 km/h 30 % 0.0 mm
16:10 32.5 °C 13.2 °C 1015.8 hPa SW 14.8 km/h 14.8 km/h 31 % 0.0 mm
16:15 33.0 °C 12.6 °C 1015.8 hPa SSW 16.9 km/h 16.9 km/h 29 % 0.0 mm
16:20 32.1 °C 12.3 °C 1015.8 hPa WSW 13.0 km/h 13.0 km/h 30 % 0.0 mm
16:25 31.8 °C 12.6 °C 1015.8 hPa WSW 16.7 km/h 16.7 km/h 31 % 0.0 mm
16:30 32.0 °C 12.8 °C 1015.8 hPa SSE 13.0 km/h 13.0 km/h 31 % 0.0 mm
16:35 31.9 °C 12.7 °C 1015.8 hPa South 11.4 km/h 11.4 km/h 31 % 0.0 mm
16:40 31.4 °C 11.7 °C 1015.8 hPa South 22.2 km/h 22.2 km/h 30 % 0.0 mm
16:45 31.2 °C 11.6 °C 1015.8 hPa West 11.1 km/h 11.1 km/h 30 % 0.0 mm
16:50 31.7 °C 12.5 °C 1015.8 hPa SW 9.3 km/h 9.3 km/h 31 % 0.0 mm
16:55 31.6 °C 12.4 °C 1015.8 hPa SSW 13.0 km/h 13.0 km/h 31 % 0.0 mm
17:00 31.6 °C 12.4 °C 1015.8 hPa SW 9.7 km/h 9.7 km/h 31 % 0.0 mm
17:05 31.2 °C 12.1 °C 1015.8 hPa SW 9.5 km/h 9.5 km/h 31 % 0.0 mm
17:10 31.3 °C 11.7 °C 1015.8 hPa SW 11.1 km/h 11.1 km/h 30 % 0.0 mm
17:15 31.0 °C 11.9 °C 1014.8 hPa South 10.3 km/h 10.3 km/h 31 % 0.0 mm
17:20 31.2 °C 12.1 °C 1014.8 hPa SW 16.7 km/h 16.7 km/h 31 % 0.0 mm
17:25 31.0 °C 11.9 °C 1014.8 hPa South 9.3 km/h 9.3 km/h 31 % 0.0 mm
17:30 31.5 °C 12.3 °C 1016.8 hPa SSW 7.4 km/h 7.4 km/h 31 % 0.0 mm
17:35 31.5 °C 12.3 °C 1016.8 hPa SSW 9.3 km/h 9.3 km/h 31 % 0.0 mm
17:40 31.1 °C 12.0 °C 1016.8 hPa West 9.3 km/h 9.3 km/h 31 % 0.0 mm
17:45 31.0 °C 11.9 °C 1014.8 hPa SSW 18.5 km/h 18.5 km/h 31 % 0.0 mm
17:50 30.6 °C 11.6 °C 1014.8 hPa SW 13.0 km/h 13.0 km/h 31 % 0.0 mm
17:52 30.4 °C 11.4 °C 1014.8 hPa SW 13.0 km/h 13.0 km/h 31 % 0.0 mm
17:57 30.4 °C 11.8 °C 1014.8 hPa WSW 11.1 km/h 11.4 km/h 32 % 0.0 mm
18:02 30.5 °C 11.9 °C 1015.8 hPa West 9.3 km/h 9.3 km/h 32 % 0.0 mm
18:07 30.3 °C 11.3 °C 1015.8 hPa SW 13.0 km/h 13.0 km/h 31 % 0.0 mm
18:12 30.0 °C 11.0 °C 1015.8 hPa SW 14.8 km/h 14.8 km/h 31 % 0.0 mm
18:17 30.0 °C 11.5 °C 1014.8 hPa WSW 12.2 km/h 12.2 km/h 32 % 0.0 mm
18:22 30.1 °C 11.6 °C 1014.8 hPa SW 9.5 km/h 9.5 km/h 32 % 0.0 mm
18:27 29.6 °C 11.2 °C 1014.8 hPa SW 11.4 km/h 11.4 km/h 32 % 0.0 mm
18:32 29.9 °C 11.4 °C 1015.8 hPa SW 7.4 km/h 7.4 km/h 32 % 0.0 mm
18:37 30.0 °C 11.5 °C 1015.8 hPa West 9.3 km/h 9.3 km/h 32 % 0.0 mm
18:42 30.0 °C 11.5 °C 1015.8 hPa WSW 14.8 km/h 14.8 km/h 32 % 0.0 mm
18:47 29.7 °C 11.2 °C 1015.8 hPa SW 9.3 km/h 9.3 km/h 32 % 0.0 mm
18:52 29.6 °C 11.2 °C 1015.8 hPa West 11.1 km/h 11.1 km/h 32 % 0.0 mm
18:57 29.5 °C 11.1 °C 1015.8 hPa WSW 9.3 km/h 9.3 km/h 32 % 0.0 mm
19:02 29.5 °C 11.1 °C 1015.8 hPa South 7.4 km/h 7.4 km/h 32 % 0.0 mm
19:07 29.3 °C 10.9 °C 1015.8 hPa SSW 9.5 km/h 9.5 km/h 32 % 0.0 mm
19:12 29.2 °C 10.8 °C 1015.8 hPa WSW 7.9 km/h 7.9 km/h 32 % 0.0 mm
19:13 29.2 °C 10.8 °C 1015.8 hPa SSW 7.4 km/h 7.4 km/h 32 % 0.0 mm
19:18 28.9 °C 10.6 °C 1015.8 hPa SW 11.1 km/h 11.1 km/h 32 % 0.0 mm
19:23 28.7 °C 10.4 °C 1015.8 hPa SW 9.5 km/h 9.5 km/h 32 % 0.0 mm
19:28 28.6 °C 10.7 °C 1015.8 hPa SW 9.3 km/h 9.3 km/h 33 % 0.0 mm
19:33 28.4 °C 10.6 °C 1015.8 hPa SW 9.3 km/h 9.3 km/h 33 % 0.0 mm
19:38 28.3 °C 10.0 °C 1015.8 hPa WSW 7.4 km/h 7.4 km/h 32 % 0.0 mm
19:43 28.1 °C 9.8 °C 1015.8 hPa SW 14.8 km/h 14.8 km/h 32 % 0.0 mm
19:48 28.0 °C 10.2 °C 1015.8 hPa WSW 9.3 km/h 9.3 km/h 33 % 0.0 mm
19:53 27.7 °C 9.9 °C 1015.8 hPa SSW 9.3 km/h 9.3 km/h 33 % 0.0 mm
19:58 27.6 °C 9.9 °C 1015.8 hPa SW 9.3 km/h 9.3 km/h 33 % 0.0 mm
20:03 27.5 °C 10.2 °C 1015.8 hPa WSW 7.4 km/h 7.4 km/h 34 % 0.0 mm
20:08 27.3 °C 10.1 °C 1015.8 hPa SW 7.4 km/h 7.4 km/h 34 % 0.0 mm
20:13 27.2 °C 10.4 °C 1015.8 hPa West 5.6 km/h 5.6 km/h 35 % 0.0 mm
20:18 27.0 °C 10.2 °C 1015.8 hPa SW 7.4 km/h 7.4 km/h 35 % 0.0 mm
20:20 27.0 °C 10.2 °C 1015.8 hPa WSW 9.3 km/h 9.3 km/h 35 % 0.0 mm
20:25 26.8 °C 10.5 °C 1015.8 hPa SW 7.4 km/h 7.4 km/h 36 % 0.0 mm
20:30 26.7 °C 10.4 °C 1015.8 hPa SW 4.2 km/h 4.2 km/h 36 % 0.0 mm
20:35 26.5 °C 10.6 °C 1015.8 hPa WSW 5.6 km/h 5.6 km/h 37 % 0.0 mm
20:40 26.3 °C 10.4 °C 1015.8 hPa SW 3.9 km/h 3.9 km/h 37 % 0.0 mm
20:45 26.1 °C 10.3 °C 1015.8 hPa SW 3.9 km/h 3.9 km/h 37 % 0.0 mm
20:50 25.9 °C 10.5 °C 1015.8 hPa West 5.6 km/h 5.6 km/h 38 % 0.0 mm
20:55 25.7 °C 10.3 °C 1015.8 hPa WSW 3.7 km/h 3.7 km/h 38 % 0.0 mm
21:00 25.5 °C 10.1 °C 1015.8 hPa WSW 3.9 km/h 3.9 km/h 38 % 0.0 mm
21:05 25.4 °C 10.4 °C 1015.8 hPa SW 3.7 km/h 3.7 km/h 39 % 0.0 mm
21:10 25.2 °C 10.3 °C 1015.8 hPa WSW 3.7 km/h 3.7 km/h 39 % 0.0 mm
21:15 25.1 °C 10.2 °C 1015.8 hPa WSW 3.7 km/h 3.7 km/h 39 % 0.0 mm
21:20 24.9 °C 10.7 °C 1015.8 hPa SW 3.7 km/h 3.7 km/h 41 % 0.0 mm
21:25 24.8 °C 10.7 °C 1015.8 hPa Calm     41 % 0.0 mm
21:30 24.6 °C 10.8 °C 1015.8 hPa ENE 3.7 km/h 3.7 km/h 42 % 0.0 mm
21:35 24.6 °C 10.8 °C 1015.8 hPa ENE 1.9 km/h 1.9 km/h 42 % 0.0 mm
21:40 24.5 °C 10.7 °C 1015.8 hPa Calm     42 % 0.0 mm
21:45 24.4 °C 11.0 °C 1015.8 hPa ENE 1.9 km/h   43 % 0.0 mm
21:50 24.4 °C 11.0 °C 1015.8 hPa Calm     43 % 0.0 mm
21:55 24.5 °C 11.1 °C 1015.8 hPa Calm     43 % 0.0 mm
22:00 24.4 °C 11.3 °C 1016.8 hPa East 3.9 km/h 3.9 km/h 44 % 0.0 mm
22:05 24.2 °C 11.5 °C 1016.8 hPa NE 3.9 km/h 3.9 km/h 45 % 0.0 mm
22:10 24.0 °C 11.7 °C 1016.8 hPa ENE 1.9 km/h 1.9 km/h 46 % 0.0 mm
22:15 24.0 °C 12.0 °C 1017.8 hPa NNE 2.3 km/h 2.3 km/h 47 % 0.0 mm
22:20 23.9 °C 12.2 °C 1017.8 hPa Calm     48 % 0.0 mm
22:25 23.8 °C 12.4 °C 1017.8 hPa NNE 1.9 km/h   49 % 0.0 mm
22:30 23.7 °C 12.7 °C 1016.8 hPa NNE 1.9 km/h   50 % 0.0 mm
22:35 23.6 °C 12.9 °C 1016.8 hPa NNE 1.9 km/h   51 % 0.0 mm
22:40 23.5 °C 13.1 °C 1016.8 hPa North 1.9 km/h   52 % 0.0 mm
22:45 23.4 °C 13.0 °C 1017.8 hPa NNE 3.7 km/h 3.7 km/h 52 % 0.0 mm
22:50 23.2 °C 13.1 °C 1017.8 hPa Calm     53 % 0.0 mm
22:55 23.1 °C 13.3 °C 1017.8 hPa Calm     54 % 0.0 mm
23:00 23.0 °C 13.4 °C 1017.8 hPa NNE 1.9 km/h   55 % 0.0 mm
23:05 22.9 °C 13.4 °C 1017.8 hPa NW 1.9 km/h 1.9 km/h 55 % 0.0 mm
23:10 22.8 °C 13.3 °C 1017.8 hPa NNW 1.9 km/h   55 % 0.0 mm
23:15 22.8 °C 13.6 °C 1017.8 hPa Calm     56 % 0.0 mm
23:20 22.7 °C 13.4 °C 1017.8 hPa Calm     56 % 0.0 mm
23:25 22.6 °C 13.7 °C 1017.8 hPa North 1.9 km/h   57 % 0.0 mm
23:30 22.5 °C 13.6 °C 1017.8 hPa Calm     57 % 0.0 mm
23:35 22.5 °C 13.8 °C 1017.8 hPa NE 3.7 km/h 3.7 km/h 58 % 0.0 mm
23:40 22.4 °C 13.7 °C 1017.8 hPa NE 1.9 km/h 1.9 km/h 58 % 0.0 mm
23:45 22.3 °C 13.9 °C 1017.8 hPa Calm     59 % 0.0 mm
23:50 22.3 °C 13.9 °C 1017.8 hPa NNE 3.9 km/h 3.9 km/h 59 % 0.0 mm
23:55 22.2 °C 13.8 °C 1017.8 hPa NNE 3.7 km/h 3.7 km/h 59 % 0.0 mm
Meteo Sesrovires
Elogis d' Weather Underground - 3.5 mb

Guio original per  Jim McMurry - jmcmurry@mwt.net Adaptat per a la plantilla per  Wim van der Kuil - Leuven-Template.eu

Trobareu la nostra informacio del temps tambe a:

Weather Underground

AWEKAS